Time;durP1;ratioP1;P1;durP2;ratioP2;P2;SDS_P1;SDS_P2;PMS_P1;PMS_P2;Temp;Humidity;BMP_temperature;BMP_pressure;BME280_temperature;BME280_humidity;BME280_pressure;Samples;Min_cycle;Max_cycle;Signal;HPM_P1;HPM_P2
2023/02/14 00:01:19;;;;;;;8.33;2.67;;;21.30;88.30;;;;;;5069712;28;20356;-67
2023/02/14 00:03:48;;;;;;;6.97;2.80;;;21.30;88.60;;;;;;5071039;28;20574;-65
2023/02/14 00:06:16;;;;;;;10.23;3.50;;;21.20;87.50;;;;;;5070648;28;20175;-68
2023/02/14 00:08:43;;;;;;;10.33;3.10;;;21.10;88.10;;;;;;5071651;28;20584;-70
2023/02/14 00:11:12;;;;;;;9.40;2.70;;;21.10;87.70;;;;;;5067585;28;20528;-70
2023/02/14 00:15:20;;;;;;;7.37;2.40;;;21.30;88.50;;;;;;5069915;28;20183;-66
2023/02/14 00:16:26;;;;;;;10.50;2.77;;;21.30;88.00;;;;;;5071324;28;20202;-71
2023/02/14 00:19:03;;;;;;;8.90;3.00;;;21.60;87.90;;;;;;5071787;28;20670;-67
2023/02/14 00:21:34;;;;;;;12.87;2.90;;;21.70;88.20;;;;;;5070438;28;20246;-69
2023/02/14 00:24:03;;;;;;;10.17;3.03;;;21.90;87.20;;;;;;5064491;28;20187;-70
2023/02/14 00:26:31;;;;;;;16.40;3.70;;;21.80;87.30;;;;;;5070230;28;20233;-66
2023/02/14 00:28:58;;;;;;;16.83;3.93;;;21.80;87.00;;;;;;5071322;28;20222;-67
2023/02/14 00:31:26;;;;;;;15.07;3.93;;;21.70;87.30;;;;;;5068382;28;20191;-70
2023/02/14 00:33:54;;;;;;;12.00;3.67;;;21.80;88.10;;;;;;5070307;28;20664;-70
2023/02/14 00:36:21;;;;;;;18.70;3.77;;;21.80;88.20;;;;;;5068374;28;20630;-70
2023/02/14 00:38:49;;;;;;;19.87;4.57;;;21.70;87.60;;;;;;5070600;28;20220;-71
2023/02/14 00:41:19;;;;;;;23.10;5.13;;;21.50;88.20;;;;;;5067339;28;20687;-70
2023/02/14 00:43:47;;;;;;;24.43;5.27;;;21.50;89.20;;;;;;5062887;28;20191;-70
2023/02/14 00:46:16;;;;;;;20.07;4.60;;;21.60;89.30;;;;;;5067882;28;20601;-72
2023/02/14 00:48:44;;;;;;;21.37;5.13;;;21.70;89.20;;;;;;5071277;28;20590;-72
2023/02/14 00:51:11;;;;;;;16.90;3.90;;;21.40;88.80;;;;;;5070766;28;20202;-72
2023/02/14 00:53:39;;;;;;;17.50;4.17;;;21.10;88.90;;;;;;5066245;28;20180;-73
2023/02/14 00:56:07;;;;;;;13.53;2.90;;;21.20;89.80;;;;;;5069961;28;20261;-73
2023/02/14 00:58:34;;;;;;;12.80;2.60;;;21.00;89.30;;;;;;5066716;28;20218;-72
2023/02/14 01:01:02;;;;;;;11.57;2.80;;;20.80;89.40;;;;;;5080821;28;20218;-73
2023/02/14 01:03:30;;;;;;;10.63;2.70;;;20.80;90.00;;;;;;5068297;28;20237;-72
2023/02/14 01:05:57;;;;;;;13.23;2.70;;;20.80;89.80;;;;;;5069048;28;20202;-72
2023/02/14 01:08:25;;;;;;;10.23;2.97;;;20.90;90.10;;;;;;5068154;28;20179;-73
2023/02/14 01:10:53;;;;;;;12.73;2.30;;;20.80;89.80;;;;;;5070781;28;20513;-72
2023/02/14 01:13:21;;;;;;;12.00;2.83;;;20.80;89.10;;;;;;5069873;28;20185;-73
2023/02/14 01:15:51;;;;;;;8.93;2.40;;;20.70;89.40;;;;;;5068229;28;20186;-72
2023/02/14 01:18:19;;;;;;;8.43;2.60;;;20.70;90.00;;;;;;5062198;28;20195;-73
2023/02/14 01:20:46;;;;;;;8.97;2.63;;;20.60;89.80;;;;;;5070349;28;20215;-72
2023/02/14 01:23:14;;;;;;;15.87;3.03;;;20.60;90.00;;;;;;5069702;28;20195;-72
2023/02/14 01:25:41;;;;;;;12.23;3.00;;;20.70;90.20;;;;;;5067207;28;20758;-74
2023/02/14 01:28:08;;;;;;;10.73;2.47;;;20.70;90.30;;;;;;5069423;28;20210;-74
2023/02/14 01:30:35;;;;;;;16.57;3.60;;;20.70;90.00;;;;;;5071387;28;20187;-72
2023/02/14 01:33:03;;;;;;;16.27;3.20;;;20.70;90.40;;;;;;5069976;28;20184;-73
2023/02/14 01:35:30;;;;;;;13.63;3.33;;;20.70;90.30;;;;;;5065559;28;20198;-74
2023/02/14 01:37:57;;;;;;;13.23;3.27;;;20.80;90.50;;;;;;5066831;28;20669;-75
2023/02/14 01:40:25;;;;;;;15.33;3.60;;;20.80;90.50;;;;;;5071276;28;20207;-75
2023/02/14 01:42:52;;;;;;;9.43;2.53;;;20.70;90.20;;;;;;5071067;28;20201;-75
2023/02/14 01:45:25;;;;;;;14.83;3.13;;;20.70;90.50;;;;;;5070560;28;20226;-75
2023/02/14 01:47:57;;;;;;;14.47;3.60;;;20.60;90.10;;;;;;5068864;28;20184;-74
2023/02/14 01:50:32;;;;;;;20.10;4.37;;;20.60;90.40;;;;;;5070998;28;20183;-75
2023/02/14 01:53:12;;;;;;;16.77;4.17;;;20.60;90.30;;;;;;5070913;28;20183;-74
2023/02/14 01:55:44;;;;;;;14.33;3.73;;;20.50;90.70;;;;;;5069715;28;20177;-72
2023/02/14 01:58:17;;;;;;;15.20;4.00;;;20.60;91.00;;;;;;5070321;28;20183;-71
2023/02/14 02:00:56;;;;;;;12.70;3.30;;;20.60;90.90;;;;;;5068867;28;20207;-73
2023/02/14 02:03:36;;;;;;;14.13;3.40;;;20.50;90.90;;;;;;5070807;28;20349;-71
2023/02/14 02:06:37;;;;;;;11.50;3.90;;;20.50;91.30;;;;;;5069659;28;20210;-71
2023/02/14 02:09:28;;;;;;;18.10;3.70;;;20.40;91.00;;;;;;5068258;28;20681;-71
2023/02/14 02:11:55;;;;;;;16.33;3.63;;;20.40;91.20;;;;;;5072425;28;20195;-72
2023/02/14 02:14:23;;;;;;;17.10;4.10;;;20.30;91.20;;;;;;5074539;28;20262;-73
2023/02/14 02:17:18;;;;;;;15.87;4.10;;;20.30;91.40;;;;;;5074980;28;20646;-74
2023/02/14 02:20:12;;;;;;;15.50;3.67;;;20.30;91.50;;;;;;5072420;28;20171;-72
2023/02/14 02:23:27;;;;;;;13.53;3.93;;;20.30;91.60;;;;;;5073280;28;20191;-71
2023/02/14 02:26:23;;;;;;;14.43;3.53;;;20.40;91.90;;;;;;5031594;28;20177;-71
2023/02/14 02:29:27;;;;;;;11.63;3.80;;;20.40;91.90;;;;;;5030940;28;20184;-71
2023/02/14 02:32:10;;;;;;;14.83;3.83;;;20.40;91.80;;;;;;5073548;28;20205;-70
2023/02/14 02:34:59;;;;;;;17.13;4.17;;;20.40;91.80;;;;;;5071649;28;20176;-72
2023/02/14 02:37:39;;;;;;;18.93;4.40;;;20.30;91.80;;;;;;5074310;28;20206;-71
2023/02/14 02:40:45;;;;;;;18.93;4.80;;;20.30;91.80;;;;;;5069981;28;20175;-71
2023/02/14 02:43:29;;;;;;;22.73;5.30;;;20.20;91.70;;;;;;5072233;28;20183;-71
2023/02/14 02:53:01;;;;;;;20.73;6.27;;;20.20;91.80;;;;;;5069574;28;20213;-70
2023/02/14 02:55:03;;;;;;;23.30;10.13;;;20.10;91.90;;;;;;5072787;28;20194;-73
2023/02/14 02:57:38;;;;;;;19.67;5.63;;;20.00;91.70;;;;;;5073266;28;20241;-71
2023/02/14 03:00:08;;;;;;;13.33;4.37;;;20.10;92.00;;;;;;5070343;28;20183;-70
2023/02/14 03:05:31;;;;;;;19.77;5.50;;;20.20;92.20;;;;;;5065953;28;20194;-70
2023/02/14 03:07:58;;;;;;;21.30;6.87;;;20.10;92.30;;;;;;5064286;28;20270;-70
2023/02/14 03:10:30;;;;;;;30.23;7.63;;;20.10;92.20;;;;;;5063332;28;20183;-69
2023/02/14 03:13:23;;;;;;;26.47;11.83;;;19.80;92.20;;;;;;5065016;28;20186;-68
2023/02/14 03:15:52;;;;;;;13.73;4.87;;;19.60;92.50;;;;;;5054451;28;20230;-69
2023/02/14 03:21:58;;;;;;;17.93;5.00;;;19.50;92.80;;;;;;5069386;28;20314;-70
2023/02/14 03:24:36;;;;;;;17.47;5.37;;;19.60;93.10;;;;;;5062229;28;20507;-70
2023/02/14 03:27:32;;;;;;;25.83;6.93;;;19.60;93.10;;;;;;5068006;28;20213;-69
2023/02/14 03:30:27;;;;;;;28.73;6.67;;;19.60;93.10;;;;;;5067606;28;20184;-69
2023/02/14 03:33:29;;;;;;;21.83;5.53;;;19.30;92.80;;;;;;5066697;28;20184;-69
2023/02/14 03:36:15;;;;;;;19.33;5.13;;;19.00;93.30;;;;;;5069073;28;20183;-70
2023/02/14 03:39:01;;;;;;;18.80;5.20;;;19.10;93.50;;;;;;5069985;28;20248;-70
2023/02/14 03:41:36;;;;;;;18.03;5.60;;;19.10;93.60;;;;;;5069785;28;20749;-69
2023/02/14 03:44:10;;;;;;;16.90;5.77;;;19.10;93.60;;;;;;5070324;28;20197;-68
2023/02/14 03:46:44;;;;;;;21.77;5.43;;;19.10;93.60;;;;;;5069248;28;20180;-68
2023/02/14 03:49:17;;;;;;;17.80;5.60;;;19.00;93.50;;;;;;5070561;28;20213;-70
2023/02/14 03:51:48;;;;;;;20.50;6.30;;;18.90;93.40;;;;;;5070683;28;20174;-70
2023/02/14 03:54:19;;;;;;;24.30;7.70;;;18.80;93.60;;;;;;5067055;28;20192;-69
2023/02/14 03:57:14;;;;;;;29.70;8.47;;;19.00;93.80;;;;;;5066923;28;20187;-69
2023/02/14 03:59:42;;;;;;;20.97;7.03;;;19.00;93.70;;;;;;5068385;28;20175;-69
2023/02/14 04:02:25;;;;;;;25.23;7.63;;;19.10;93.80;;;;;;5068809;28;20249;-70
2023/02/14 04:04:53;;;;;;;21.77;6.40;;;19.20;93.90;;;;;;5063737;28;20274;-70
2023/02/14 04:07:22;;;;;;;23.17;7.63;;;19.30;93.90;;;;;;5067762;28;20687;-70
2023/02/14 04:09:51;;;;;;;17.87;6.90;;;19.40;93.90;;;;;;5069782;28;21205;-70
2023/02/14 04:12:19;;;;;;;12.93;5.80;;;19.30;93.80;;;;;;5071251;28;20723;-71
2023/02/14 04:14:47;;;;;;;15.03;4.83;;;19.40;93.80;;;;;;5069088;28;20191;-71
2023/02/14 04:19:59;;;;;;;14.67;5.10;;;19.30;93.70;;;;;;5068091;28;20190;-72
2023/02/14 04:22:27;;;;;;;20.60;5.20;;;19.30;93.70;;;;;;5069202;28;20653;-70
2023/02/14 04:24:54;;;;;;;15.93;6.17;;;19.30;93.70;;;;;;5064024;28;20261;-70
2023/02/14 04:27:21;;;;;;;15.23;5.23;;;19.30;93.60;;;;;;5068187;28;20592;-70
2023/02/14 04:29:51;;;;;;;12.60;4.77;;;19.30;93.50;;;;;;5069782;28;20557;-71
2023/02/14 04:32:21;;;;;;;20.43;5.80;;;19.30;93.50;;;;;;5069431;28;20180;-70
2023/02/14 04:34:48;;;;;;;13.17;5.07;;;19.30;93.50;;;;;;5070127;28;20222;-70
2023/02/14 04:37:18;;;;;;;20.07;5.03;;;19.30;93.50;;;;;;5068953;28;20178;-70
2023/02/14 04:39:45;;;;;;;13.17;5.70;;;19.40;93.40;;;;;;5068065;28;20655;-71
2023/02/14 04:42:13;;;;;;;13.13;5.00;;;19.40;93.50;;;;;;5068049;28;20203;-70
2023/02/14 04:44:40;;;;;;;17.13;4.90;;;19.30;93.30;;;;;;5068451;28;20577;-70
2023/02/14 04:47:08;;;;;;;11.83;4.83;;;19.30;93.30;;;;;;5068498;28;20183;-71
2023/02/14 04:49:36;;;;;;;15.17;5.80;;;19.30;93.30;;;;;;5071091;28;20168;-71
2023/02/14 04:52:04;;;;;;;13.27;5.07;;;19.30;93.30;;;;;;5064089;28;20213;-70
2023/02/14 04:54:32;;;;;;;16.83;4.87;;;19.40;93.30;;;;;;5069872;28;20558;-71
2023/02/14 04:56:59;;;;;;;16.20;5.30;;;19.40;93.30;;;;;;5069277;28;20244;-71
2023/02/14 04:59:26;;;;;;;16.00;6.20;;;19.40;93.20;;;;;;5060220;28;20184;-71
2023/02/14 05:01:54;;;;;;;20.33;6.27;;;19.50;93.30;;;;;;5068204;28;20223;-71
2023/02/14 05:04:21;;;;;;;20.90;6.07;;;19.50;93.20;;;;;;5063009;28;20302;-72
2023/02/14 05:06:49;;;;;;;15.20;6.17;;;19.50;93.20;;;;;;5066007;28;20186;-71
2023/02/14 05:09:16;;;;;;;16.23;6.40;;;19.50;93.20;;;;;;5065091;28;20175;-71
2023/02/14 05:11:43;;;;;;;18.00;6.73;;;19.50;93.00;;;;;;5063483;28;20326;-71
2023/02/14 05:14:12;;;;;;;18.37;6.93;;;19.60;93.20;;;;;;5066881;28;20210;-70
2023/02/14 05:16:39;;;;;;;21.77;6.57;;;19.70;93.10;;;;;;5065523;28;20220;-71
2023/02/14 05:19:07;;;;;;;15.33;6.27;;;19.70;92.80;;;;;;5069162;28;20191;-71
2023/02/14 05:21:38;;;;;;;16.00;5.60;;;19.90;92.80;;;;;;5070187;28;20277;-73
2023/02/14 05:24:06;;;;;;;16.03;5.63;;;20.00;92.50;;;;;;5069352;28;20715;-73
2023/02/14 05:26:33;;;;;;;18.20;6.40;;;20.20;92.30;;;;;;5064015;28;20201;-73
2023/02/14 05:29:00;;;;;;;9.67;5.43;;;20.30;91.90;;;;;;5070813;28;20653;-74
2023/02/14 05:31:28;;;;;;;14.47;5.90;;;20.50;92.00;;;;;;5068889;28;20181;-72
2023/02/14 05:34:09;;;;;;;15.97;6.00;;;20.60;91.90;;;;;;5068533;28;20183;-72
2023/02/14 05:36:37;;;;;;;14.30;5.17;;;20.60;91.20;;;;;;5068350;28;20257;-73
2023/02/14 05:39:05;;;;;;;14.33;5.67;;;20.40;90.40;;;;;;5068084;28;20194;-72
2023/02/14 05:41:32;;;;;;;12.40;5.30;;;20.40;90.50;;;;;;5069535;28;20207;-74
2023/02/14 05:43:59;;;;;;;11.97;5.40;;;20.40;90.60;;;;;;5072832;28;20183;-74
2023/02/14 05:46:27;;;;;;;21.37;6.13;;;20.60;90.80;;;;;;5072711;28;20233;-74
2023/02/14 05:48:57;;;;;;;11.13;4.70;;;20.60;90.70;;;;;;5068984;28;20691;-75
2023/02/14 05:51:25;;;;;;;13.87;5.20;;;20.50;90.50;;;;;;5068137;28;20262;-74
2023/02/14 05:53:52;;;;;;;11.57;4.90;;;20.60;90.50;;;;;;5073395;28;20175;-74
2023/02/14 05:56:19;;;;;;;15.03;5.33;;;20.50;90.20;;;;;;5066810;28;20218;-75
2023/02/14 05:58:50;;;;;;;13.93;5.50;;;20.50;90.40;;;;;;5072164;28;20191;-76
2023/02/14 06:01:17;;;;;;;14.70;5.17;;;20.50;90.30;;;;;;5073835;28;20703;-74
2023/02/14 06:03:45;;;;;;;16.77;5.40;;;20.40;90.20;;;;;;5064998;28;20227;-73
2023/02/14 06:06:12;;;;;;;12.10;4.93;;;20.50;90.30;;;;;;5064659;28;20179;-72
2023/02/14 06:08:39;;;;;;;11.37;4.60;;;20.60;90.40;;;;;;5070345;28;20577;-72
2023/02/14 06:11:07;;;;;;;14.73;4.53;;;20.60;89.90;;;;;;5066487;28;20187;-73
2023/02/14 06:13:34;;;;;;;17.67;5.20;;;20.80;90.10;;;;;;5070410;28;20179;-72
2023/02/14 06:16:04;;;;;;;17.67;4.77;;;20.80;90.00;;;;;;5072155;28;20183;-71
2023/02/14 06:18:31;;;;;;;18.90;4.73;;;20.80;90.00;;;;;;5073698;28;20182;-72
2023/02/14 06:20:58;;;;;;;19.07;4.90;;;20.80;89.80;;;;;;5071142;28;20696;-72
2023/02/14 06:23:26;;;;;;;10.83;3.73;;;20.70;89.80;;;;;;5066696;28;20179;-71
2023/02/14 06:25:53;;;;;;;9.83;3.70;;;20.80;89.90;;;;;;5070062;28;20198;-71
2023/02/14 06:28:20;;;;;;;15.40;3.93;;;20.70;90.00;;;;;;5072563;28;20266;-72
2023/02/14 06:30:47;;;;;;;13.80;3.90;;;20.70;89.90;;;;;;5074306;28;20219;-71
2023/02/14 06:33:15;;;;;;;7.43;3.67;;;20.70;89.50;;;;;;5069864;28;20218;-72
2023/02/14 06:35:42;;;;;;;13.53;4.33;;;20.70;89.50;;;;;;5071001;28;20195;-72
2023/02/14 06:38:10;;;;;;;14.23;4.13;;;20.70;89.70;;;;;;5072107;28;20182;-72
2023/02/14 06:40:37;;;;;;;15.90;4.57;;;20.80;89.80;;;;;;5069497;28;20203;-76
2023/02/14 06:43:04;;;;;;;7.97;3.60;;;20.80;89.40;;;;;;5069320;28;20213;-71
2023/02/14 06:45:32;;;;;;;15.20;4.13;;;20.80;89.30;;;;;;5072866;28;20577;-72
2023/02/14 06:47:59;;;;;;;15.63;4.20;;;20.90;89.40;;;;;;5071610;28;20659;-72
2023/02/14 06:50:26;;;;;;;10.43;3.43;;;20.80;89.00;;;;;;5059776;28;20183;-72
2023/02/14 06:52:54;;;;;;;15.47;4.20;;;20.80;88.90;;;;;;5068751;28;20624;-73
2023/02/14 06:55:21;;;;;;;16.97;4.07;;;20.80;89.00;;;;;;5072684;28;20186;-74
2023/02/14 06:57:51;;;;;;;15.73;4.13;;;20.90;89.10;;;;;;5071525;28;20167;-73
2023/02/14 07:00:19;;;;;;;13.33;4.00;;;20.90;88.70;;;;;;5066329;28;20222;-72
2023/02/14 07:02:47;;;;;;;14.03;3.70;;;20.90;88.60;;;;;;5070913;28;20223;-71
2023/02/14 07:05:17;;;;;;;8.87;4.20;;;20.90;88.60;;;;;;5073465;28;20187;-70
2023/02/14 07:07:45;;;;;;;12.73;3.33;;;20.90;88.70;;;;;;5071886;28;20183;-71
2023/02/14 07:10:12;;;;;;;12.30;3.93;;;20.80;88.20;;;;;;5073536;28;20254;-71
2023/02/14 07:12:40;;;;;;;15.70;3.67;;;20.80;88.20;;;;;;5072752;28;20171;-72
2023/02/14 07:15:09;;;;;;;13.87;3.90;;;20.80;88.10;;;;;;5069493;28;20551;-72
2023/02/14 07:17:37;;;;;;;14.63;4.30;;;20.80;88.00;;;;;;5072825;28;20536;-68
2023/02/14 07:20:05;;;;;;;8.40;3.73;;;20.80;87.40;;;;;;5071738;28;20184;-70
2023/02/14 07:22:33;;;;;;;9.43;3.47;;;20.90;87.60;;;;;;5068341;28;20184;-72
2023/02/14 07:25:01;;;;;;;16.80;3.90;;;21.00;88.00;;;;;;5068103;28;20239;-70
2023/02/14 07:27:28;;;;;;;13.37;3.53;;;21.10;87.10;;;;;;5067700;28;20237;-71
2023/02/14 07:29:56;;;;;;;11.37;3.17;;;21.20;87.20;;;;;;5072124;28;20258;-70
2023/02/14 07:32:23;;;;;;;16.20;4.00;;;21.20;86.60;;;;;;5073410;28;20654;-70
2023/02/14 07:34:51;;;;;;;16.73;3.90;;;21.20;86.70;;;;;;5064359;28;20183;-71
2023/02/14 07:37:19;;;;;;;18.97;4.47;;;21.30;87.10;;;;;;5070090;28;20266;-71
2023/02/14 07:39:46;;;;;;;15.20;3.63;;;21.60;85.80;;;;;;5071759;28;20266;-70
2023/02/14 07:42:13;;;;;;;11.10;3.37;;;22.40;83.40;;;;;;5072070;28;20237;-72
2023/02/14 07:44:41;;;;;;;13.03;3.17;;;23.10;80.50;;;;;;5070516;28;20179;-72
2023/02/14 07:47:09;;;;;;;11.67;2.97;;;23.60;78.70;;;;;;5070058;28;20266;-72
2023/02/14 07:49:37;;;;;;;11.80;2.80;;;23.80;76.40;;;;;;5072905;28;20175;-70
2023/02/14 07:52:05;;;;;;;11.50;2.63;;;23.60;76.40;;;;;;5072224;28;20241;-72
2023/02/14 07:54:32;;;;;;;9.57;2.93;;;22.80;79.40;;;;;;5073190;28;20217;-70
2023/02/14 07:56:59;;;;;;;10.80;2.90;;;22.70;80.30;;;;;;5071284;28;20637;-70
2023/02/14 07:59:27;;;;;;;8.67;2.93;;;22.40;81.20;;;;;;5068066;28;20645;-70
2023/02/14 08:01:54;;;;;;;13.80;3.30;;;22.00;81.90;;;;;;5072454;28;20219;-70
2023/02/14 08:04:24;;;;;;;11.93;3.50;;;21.70;83.30;;;;;;5067000;28;20240;-69
2023/02/14 08:06:53;;;;;;;11.07;3.03;;;21.40;83.90;;;;;;5071842;28;20183;-70
2023/02/14 08:09:24;;;;;;;13.93;4.03;;;21.20;85.00;;;;;;5069054;28;20186;-70
2023/02/14 08:14:42;;;;;;;21.03;4.07;;;20.90;86.20;;;;;;5068843;28;20185;-70
2023/02/14 08:17:12;;;;;;;15.73;3.93;;;20.60;86.90;;;;;;5067275;28;20195;-69
2023/02/14 08:19:40;;;;;;;17.97;3.50;;;20.50;87.40;;;;;;5071774;28;20179;-70
2023/02/14 08:22:07;;;;;;;14.10;4.07;;;20.40;88.20;;;;;;5063169;28;20231;-70
2023/02/14 08:24:35;;;;;;;18.37;5.00;;;20.30;88.60;;;;;;5069925;28;20235;-69
2023/02/14 08:27:03;;;;;;;15.37;4.23;;;20.20;88.90;;;;;;5071992;28;20730;-69
2023/02/14 08:29:30;;;;;;;18.37;4.43;;;20.20;89.20;;;;;;5069087;28;20228;-71
2023/02/14 08:31:59;;;;;;;22.70;5.10;;;20.10;89.60;;;;;;5072009;28;20195;-69
2023/02/14 08:34:26;;;;;;;13.23;3.93;;;20.00;89.80;;;;;;5068469;28;20183;-69
2023/02/14 08:36:55;;;;;;;11.83;4.00;;;20.00;89.80;;;;;;5067625;28;20245;-70
2023/02/14 08:39:22;;;;;;;11.57;4.10;;;19.90;90.00;;;;;;5071811;28;20205;-68
2023/02/14 08:41:49;;;;;;;21.07;4.70;;;19.80;90.00;;;;;;5072097;28;20206;-69
2023/02/14 08:44:17;;;;;;;19.60;5.03;;;19.80;90.30;;;;;;5071640;28;20210;-69
2023/02/14 08:46:44;;;;;;;15.43;4.73;;;19.80;90.30;;;;;;5069739;28;20183;-70
2023/02/14 08:49:15;;;;;;;13.50;4.53;;;19.80;90.50;;;;;;5070439;28;20183;-69
2023/02/14 08:51:42;;;;;;;13.87;4.10;;;19.80;90.60;;;;;;5068767;28;20171;-69
2023/02/14 08:54:10;;;;;;;12.10;3.90;;;19.80;90.60;;;;;;5068027;28;20697;-69
2023/02/14 08:56:41;;;;;;;15.40;5.00;;;19.80;90.60;;;;;;5070486;28;20179;-69
2023/02/14 08:59:08;;;;;;;14.80;4.73;;;19.70;90.70;;;;;;5067292;28;20640;-69
2023/02/14 09:01:36;;;;;;;17.13;4.93;;;19.60;90.70;;;;;;5059103;28;20693;-68
2023/02/14 09:04:03;;;;;;;11.27;4.83;;;19.60;90.80;;;;;;5067314;28;20227;-69
2023/02/14 09:06:30;;;;;;;16.33;4.90;;;19.60;91.00;;;;;;5068054;28;20190;-69
2023/02/14 09:08:58;;;;;;;14.93;4.67;;;19.60;91.10;;;;;;5067031;28;20183;-69
2023/02/14 09:11:26;;;;;;;15.90;5.33;;;19.60;91.10;;;;;;5068528;28;20260;-69
2023/02/14 09:13:54;;;;;;;16.30;5.53;;;19.60;91.00;;;;;;5069656;28;20559;-69
2023/02/14 09:16:23;;;;;;;18.37;6.27;;;19.50;91.00;;;;;;5070359;28;20284;-69
2023/02/14 09:18:51;;;;;;;20.07;5.37;;;19.60;91.20;;;;;;5068393;28;20175;-69
2023/02/14 09:21:25;;;;;;;17.20;5.57;;;19.60;91.20;;;;;;5070422;28;20207;-70
2023/02/14 09:23:53;;;;;;;14.80;5.13;;;19.60;91.20;;;;;;5070849;28;20194;-68
2023/02/14 09:26:21;;;;;;;18.87;5.87;;;19.50;91.20;;;;;;5066176;28;20171;-69
2023/02/14 09:28:48;;;;;;;20.57;6.30;;;19.60;91.20;;;;;;5069854;28;20258;-69
2023/02/14 09:31:19;;;;;;;13.47;5.20;;;19.50;91.20;;;;;;5061289;28;20175;-69
2023/02/14 09:39:18;;;;;;;23.47;5.73;;;19.50;91.20;;;;;;5067882;28;20232;-68
2023/02/14 09:42:06;;;;;;;14.20;5.37;;;19.60;91.30;;;;;;5066812;28;20211;-70
2023/02/14 09:44:50;;;;;;;15.20;5.83;;;19.60;91.30;;;;;;5068583;28;20262;-69
2023/02/14 09:47:45;;;;;;;19.87;6.80;;;19.60;91.50;;;;;;5070383;28;20191;-69
2023/02/14 09:50:18;;;;;;;21.27;7.27;;;19.60;91.50;;;;;;5068293;28;20214;-69
2023/02/14 09:52:51;;;;;;;16.17;7.00;;;19.60;91.60;;;;;;5066146;28;20178;-67
2023/02/14 09:55:19;;;;;;;21.37;7.53;;;19.60;91.70;;;;;;5063623;28;20186;-70
2023/02/14 09:58:07;;;;;;;14.47;5.60;;;19.60;91.70;;;;;;5063521;28;20179;-70
2023/02/14 10:00:48;;;;;;;18.63;6.30;;;19.60;91.70;;;;;;5070618;28;20217;-70
2023/02/14 10:03:33;;;;;;;20.07;6.33;;;19.60;91.70;;;;;;5063577;28;20218;-69
2023/02/14 10:06:09;;;;;;;19.27;6.60;;;19.50;91.80;;;;;;5070895;28;20698;-70
2023/02/14 10:08:55;;;;;;;20.03;7.07;;;19.50;91.80;;;;;;5065344;28;20205;-70
2023/02/14 10:11:24;;;;;;;19.17;7.13;;;19.50;91.80;;;;;;5067559;28;20191;-69
2023/02/14 10:14:10;;;;;;;18.37;7.80;;;19.60;91.90;;;;;;5069760;28;20221;-70
2023/02/14 10:16:57;;;;;;;20.67;7.43;;;19.60;91.90;;;;;;5068253;28;20237;-70
2023/02/14 10:19:31;;;;;;;21.10;7.17;;;19.60;91.90;;;;;;5070910;28;20190;-70
2023/02/14 10:22:04;;;;;;;23.60;7.27;;;19.60;91.80;;;;;;5069213;28;20207;-69
2023/02/14 10:24:37;;;;;;;27.73;7.53;;;19.50;91.70;;;;;;5070471;28;20172;-70
2023/02/14 10:27:30;;;;;;;21.63;6.87;;;19.60;91.70;;;;;;5068688;28;20190;-70
2023/02/14 10:29:58;;;;;;;24.77;7.40;;;19.50;91.70;;;;;;5072661;28;20183;-70
2023/02/14 10:32:45;;;;;;;19.93;7.10;;;19.60;91.80;;;;;;5071911;28;20182;-70
2023/02/14 10:35:43;;;;;;;18.67;6.73;;;19.50;91.80;;;;;;5067648;28;20539;-70
2023/02/14 10:38:39;;;;;;;19.97;6.20;;;19.50;91.70;;;;;;5064436;28;20180;-70
2023/02/14 10:41:51;;;;;;;27.00;6.70;;;19.50;91.70;;;;;;5074163;28;20198;-70
2023/02/14 10:44:21;;;;;;;20.20;6.20;;;19.60;91.70;;;;;;5070701;28;20184;-70
2023/02/14 10:46:54;;;;;;;17.07;8.03;;;19.60;91.70;;;;;;5072709;28;20207;-70
2023/02/14 10:50:07;;;;;;;18.90;6.43;;;19.60;91.70;;;;;;5073871;28;20270;-70
2023/02/14 10:52:37;;;;;;;18.23;6.40;;;19.50;91.60;;;;;;5061787;28;20236;-70
2023/02/14 10:55:45;;;;;;;24.07;6.63;;;19.60;91.70;;;;;;5072773;28;20184;-70
2023/02/14 10:58:18;;;;;;;19.20;6.40;;;19.60;91.70;;;;;;5055161;28;20217;-70
2023/02/14 11:01:16;;;;;;;19.07;6.23;;;19.60;91.60;;;;;;5073526;28;20206;-70
2023/02/14 11:03:55;;;;;;;13.67;6.00;;;19.60;91.70;;;;;;5073482;28;20758;-70
2023/02/14 11:06:22;;;;;;;21.07;6.57;;;19.70;91.70;;;;;;5071241;28;20189;-69
2023/02/14 11:08:49;;;;;;;16.83;6.80;;;19.70;91.70;;;;;;5069659;28;20233;-69
2023/02/14 11:11:22;;;;;;;16.47;6.90;;;19.70;91.80;;;;;;5072357;28;20185;-70
2023/02/14 11:13:50;;;;;;;18.43;7.27;;;19.70;91.80;;;;;;5067160;28;20175;-69
2023/02/14 11:16:36;;;;;;;14.20;7.07;;;19.70;91.80;;;;;;5069284;28;20190;-69
2023/02/14 11:19:15;;;;;;;16.23;6.97;;;19.70;91.90;;;;;;5071454;28;20183;-69
2023/02/14 11:21:45;;;;;;;15.00;6.83;;;19.70;91.90;;;;;;5071663;28;20234;-69
2023/02/14 11:24:31;;;;;;;16.43;6.90;;;19.70;92.00;;;;;;5071593;28;20183;-69
2023/02/14 11:27:18;;;;;;;13.67;7.17;;;19.70;92.00;;;;;;5073537;28;20221;-69
2023/02/14 11:29:51;;;;;;;17.93;8.10;;;19.70;92.00;;;;;;5073414;28;20174;-69
2023/02/14 11:32:27;;;;;;;20.37;7.47;;;19.70;92.10;;;;;;5072195;28;20233;-69
2023/02/14 11:35:07;;;;;;;25.50;8.30;;;19.70;92.20;;;;;;5072723;28;20191;-69
2023/02/14 11:37:41;;;;;;;16.10;7.60;;;19.70;92.10;;;;;;5072984;28;20255;-69
2023/02/14 11:40:30;;;;;;;16.27;7.60;;;19.70;92.10;;;;;;5072101;28;20187;-69
2023/02/14 11:43:12;;;;;;;22.77;8.33;;;19.70;92.10;;;;;;5073120;28;20187;-69
2023/02/14 11:45:44;;;;;;;19.80;7.60;;;19.70;92.20;;;;;;5072980;28;20266;-69
2023/02/14 11:48:28;;;;;;;17.70;7.40;;;19.70;92.20;;;;;;5066686;28;20176;-69
2023/02/14 11:51:04;;;;;;;17.97;7.30;;;19.70;92.20;;;;;;5072193;28;20218;-69
2023/02/14 11:53:54;;;;;;;17.37;7.60;;;19.70;92.10;;;;;;5073137;28;20186;-69
2023/02/14 11:56:23;;;;;;;12.57;6.60;;;19.70;92.20;;;;;;5072807;28;20262;-69
2023/02/14 11:58:59;;;;;;;17.87;7.07;;;19.70;92.10;;;;;;5073387;28;20727;-69
2023/02/14 12:01:37;;;;;;;15.90;6.73;;;19.60;92.00;;;;;;5072496;28;20260;-69
2023/02/14 12:04:22;;;;;;;15.33;7.23;;;19.60;92.00;;;;;;5072458;28;20227;-69
2023/02/14 12:06:52;;;;;;;20.40;6.53;;;19.60;92.00;;;;;;5072808;28;20193;-69
2023/02/14 12:09:22;;;;;;;11.83;6.27;;;19.60;91.90;;;;;;5072404;28;20179;-69
2023/02/14 12:12:15;;;;;;;16.03;6.73;;;19.60;91.90;;;;;;5072694;28;20171;-69
2023/02/14 12:14:43;;;;;;;19.40;6.73;;;19.60;91.90;;;;;;5071878;28;20183;-69
2023/02/14 12:17:35;;;;;;;14.13;6.80;;;19.50;91.90;;;;;;5072828;28;20190;-69
2023/02/14 12:20:11;;;;;;;16.90;7.20;;;19.50;91.90;;;;;;5072241;28;20194;-69
2023/02/14 12:23:20;;;;;;;16.63;7.17;;;19.50;91.90;;;;;;5071689;28;20206;-70
2023/02/14 12:26:31;;;;;;;16.00;7.47;;;19.50;91.90;;;;;;5050943;28;20206;-69
2023/02/14 12:29:21;;;;;;;18.07;7.07;;;19.40;92.00;;;;;;5058687;28;20210;-69
2023/02/14 12:31:49;;;;;;;14.20;6.77;;;19.40;92.10;;;;;;5066052;28;20554;-69
2023/02/14 12:34:21;;;;;;;18.87;7.77;;;19.30;92.00;;;;;;5074170;28;20179;-69
2023/02/14 12:37:07;;;;;;;17.87;7.27;;;19.30;92.10;;;;;;5072508;28;20231;-69
2023/02/14 12:39:48;;;;;;;20.73;7.97;;;19.30;92.10;;;;;;5070475;28;20548;-69
2023/02/14 12:42:33;;;;;;;15.73;8.30;;;19.20;92.10;;;;;;5072237;28;20222;-69
2023/02/14 12:45:36;;;;;;;23.53;8.20;;;19.20;92.10;;;;;;5072284;28;20254;-69
2023/02/14 12:48:18;;;;;;;22.50;9.27;;;19.20;92.20;;;;;;5048855;28;20195;-69
2023/02/14 12:50:58;;;;;;;21.93;9.13;;;19.10;92.30;;;;;;5071734;28;20773;-70
2023/02/14 12:53:41;;;;;;;23.50;9.40;;;19.10;92.40;;;;;;5067436;28;20175;-69
2023/02/14 12:56:43;;;;;;;20.70;9.23;;;19.10;92.40;;;;;;5067880;28;20187;-69
2023/02/14 12:59:43;;;;;;;24.97;9.47;;;19.20;92.40;;;;;;5068201;28;20174;-69
2023/02/14 13:02:25;;;;;;;26.07;9.77;;;19.20;92.60;;;;;;5069389;28;20222;-70
2023/02/14 13:05:01;;;;;;;26.73;9.00;;;19.20;92.60;;;;;;5069300;28;20183;-69
2023/02/14 13:07:36;;;;;;;33.43;10.50;;;19.20;92.60;;;;;;5070997;28;20222;-69
2023/02/14 13:10:19;;;;;;;23.47;10.30;;;19.20;92.60;;;;;;5064462;28;20179;-69
2023/02/14 13:13:05;;;;;;;24.13;9.97;;;19.20;92.60;;;;;;5069119;28;21282;-69
2023/02/14 13:15:36;;;;;;;21.03;9.50;;;19.10;92.60;;;;;;5068624;28;20175;-69
2023/02/14 13:18:23;;;;;;;24.63;10.30;;;19.00;92.60;;;;;;5069220;28;20258;-69
2023/02/14 13:21:00;;;;;;;26.03;10.20;;;19.00;92.70;;;;;;5070463;28;20310;-69
2023/02/14 13:23:46;;;;;;;21.13;10.50;;;18.90;92.70;;;;;;5070890;28;20175;-70
2023/02/14 13:26:28;;;;;;;21.70;9.73;;;18.90;92.80;;;;;;5068430;28;20633;-69
2023/02/14 13:29:12;;;;;;;20.77;10.00;;;19.00;92.90;;;;;;5071081;28;20195;-69
2023/02/14 13:31:41;;;;;;;13.67;9.37;;;18.90;92.90;;;;;;5068900;28;20183;-69
2023/02/14 13:34:32;;;;;;;20.57;9.73;;;19.00;93.00;;;;;;5071469;28;20264;-69
2023/02/14 13:37:02;;;;;;;14.30;8.90;;;18.90;93.00;;;;;;5069033;28;20325;-70